Aeroporto :
LOGIN :

Iscrizione | Disclaimer

   EN    FR    IT 

 










Sommario :    VFR   VFR Marginale   IFR   IFR Intensivo   IFR Molto Intensivo
Visibilità : 
Base nubi : 
>= 8 km
>= 3000ft
5 / 8 km
1000 / 3000 ft
1500m / 5 km
500 / 1000 ft
800 / 1500m
200 / 500 ft
< 800m
< 200 ft
Simboli :   Temporali  Nebbia  Neve Forte  Precipitazioni Forti  Vento > 20 kt
SIGMETs :   Varie  Temporali  Ghiacco  Turbolenza  Onda orograficha  Ceneri Vulcaniche






- Altitudine del aeroporto : 1708 ft
- Codice IATA : SJJ


LQSA - Sarajevo

ULTIMO METAR :
  • 180630Z VRB01KT CAVOK 20/14 Q1021 NOSIG

METARs OBSOLETI :
  • 180600Z VRB02KT CAVOK 17/14 Q1021 NOSIG
  • 180530Z VRB02KT CAVOK 17/13 Q1021 NOSIG
  • 180500Z 00000KT CAVOK 15/13 Q1020 NOSIG
  • 180430Z VRB02KT CAVOK 14/13 Q1020 NOSIG
  • 180400Z 16003KT CAVOK 14/12 Q1020 NOSIG
  • 180330Z 13004KT CAVOK 14/12 Q1020
  • 180300Z 15001KT CAVOK 14/12 Q1020
  • 180230Z VRB02KT CAVOK 14/12 Q1020
  • 180200Z 11003KT CAVOK 15/12 Q1020

TAF TAF LQSA
Valido dal 18 a 06 ore il 19 a 06 ore UTC


180500Z 1806/1906 VRB02KT CAVOK TX32/1814Z TN16/1903Z



MetMap, La meteo Aeronautica in un colpo d'occhio ! - Copyright ORBIFLY Dicembre 2007 - Disclaimer

ORBIFLY MET'MAP TEAM :

Programmazione e sviluppo : Alexandra Zaïnal
Concezione : Baudouin d'Aumeries
Supporto tecnico e logistico : Manuel Goepfert
Aiuto : Marc-Olivier Méhu
Aiuto per la traduzione : Arnaldo La Scala




FONTI E CREDITI :

   NOAA